Time;durP1;ratioP1;P1;durP2;ratioP2;P2;SDS_P1;SDS_P2;PMS_P1;PMS_P2;Temp;Humidity;BMP_temperature;BMP_pressure;BME280_temperature;BME280_humidity;BME280_pressure;Samples;Min_cycle;Max_cycle;Signal;HPM_P1;HPM_P2
2024/04/02 00:01:48;;;;;;;3.05;2.42;;;9.10;99.90;;;;;;5076813;28;20126;-43
2024/04/02 00:04:15;;;;;;;3.20;2.42;;;9.20;99.90;;;;;;5072369;28;20421;-46
2024/04/02 00:06:41;;;;;;;3.22;2.10;;;9.20;99.90;;;;;;5078807;28;20047;-43
2024/04/02 00:09:08;;;;;;;3.55;2.38;;;9.20;99.90;;;;;;5077813;28;20036;-46
2024/04/02 00:11:34;;;;;;;3.78;2.30;;;9.10;99.90;;;;;;5079486;28;20040;-45
2024/04/02 00:14:00;;;;;;;5.18;2.45;;;9.10;99.90;;;;;;5075563;28;20150;-45
2024/04/02 00:16:26;;;;;;;2.90;2.30;;;9.20;99.90;;;;;;5073048;28;20047;-43
2024/04/02 00:18:52;;;;;;;4.70;2.22;;;9.20;99.90;;;;;;5070190;28;20044;-46
2024/04/02 00:21:20;;;;;;;3.17;2.20;;;9.20;99.90;;;;;;5077702;28;20059;-50
2024/04/02 00:23:46;;;;;;;3.42;2.20;;;9.20;99.90;;;;;;5077366;28;20539;-47
2024/04/02 00:26:12;;;;;;;2.78;2.22;;;9.20;99.90;;;;;;5078355;28;20043;-45
2024/04/02 00:28:38;;;;;;;2.22;2.03;;;9.20;99.90;;;;;;5075386;28;20036;-50
2024/04/02 00:31:06;;;;;;;2.55;2.20;;;9.30;99.90;;;;;;5078470;28;20076;-46
2024/04/02 00:33:32;;;;;;;2.78;2.40;;;9.20;99.90;;;;;;5077754;28;20128;-43
2024/04/02 00:36:06;;;;;;;3.53;2.30;;;9.20;99.90;;;;;;5075260;28;20040;-48
2024/04/02 00:38:33;;;;;;;3.25;2.30;;;9.20;99.90;;;;;;5079053;28;20101;-45
2024/04/02 00:40:59;;;;;;;3.40;2.40;;;9.10;99.90;;;;;;5071485;28;20109;-43
2024/04/02 00:43:26;;;;;;;3.90;2.30;;;9.20;99.90;;;;;;5070852;28;20048;-46
2024/04/02 00:45:52;;;;;;;4.55;2.20;;;9.10;99.90;;;;;;5057839;28;20428;-46
2024/04/02 00:48:19;;;;;;;3.53;2.22;;;9.10;99.90;;;;;;5072735;28;20044;-44
2024/04/02 00:50:46;;;;;;;3.88;2.30;;;9.00;99.90;;;;;;5072684;28;20054;-44
2024/04/02 00:53:14;;;;;;;3.40;2.22;;;8.90;99.90;;;;;;5073193;28;20504;-45
2024/04/02 00:55:43;;;;;;;2.88;2.20;;;8.90;99.90;;;;;;5075751;28;21073;-45
2024/04/02 00:58:10;;;;;;;3.20;2.40;;;8.80;99.90;;;;;;5071615;28;20104;-47
2024/04/02 01:00:36;;;;;;;3.17;2.25;;;8.80;99.90;;;;;;5080892;28;20044;-41
2024/04/02 01:03:03;;;;;;;4.03;2.38;;;8.80;99.90;;;;;;5072506;28;20036;-45
2024/04/02 01:05:31;;;;;;;2.55;2.10;;;8.80;99.90;;;;;;5076925;28;20044;-44
2024/04/02 01:07:58;;;;;;;3.83;2.20;;;8.80;99.90;;;;;;5070651;28;20499;-46
2024/04/02 01:10:24;;;;;;;2.70;2.08;;;8.80;99.90;;;;;;5072310;28;20118;-46
2024/04/02 01:12:50;;;;;;;2.90;2.00;;;8.90;99.90;;;;;;5078770;28;20027;-41
2024/04/02 01:15:20;;;;;;;4.72;2.47;;;8.90;99.90;;;;;;5073392;28;20246;-46
2024/04/02 01:17:47;;;;;;;3.15;2.30;;;8.80;99.90;;;;;;5078159;28;20055;-47
2024/04/02 01:20:13;;;;;;;2.97;2.30;;;8.90;99.90;;;;;;5076651;28;20044;-41
2024/04/02 01:22:39;;;;;;;4.25;2.53;;;8.90;99.90;;;;;;5073864;28;20074;-48
2024/04/02 01:25:07;;;;;;;4.03;2.30;;;8.90;99.90;;;;;;5081820;28;20485;-43
2024/04/02 01:27:33;;;;;;;2.83;2.15;;;9.00;99.90;;;;;;5073182;28;20093;-44
2024/04/02 01:29:59;;;;;;;2.67;2.15;;;8.90;99.90;;;;;;5068348;28;20036;-43
2024/04/02 01:32:25;;;;;;;4.20;2.20;;;8.80;99.90;;;;;;5068720;28;20558;-42
2024/04/02 01:34:51;;;;;;;2.75;2.00;;;8.80;99.90;;;;;;5070477;28;20036;-46
2024/04/02 01:37:17;;;;;;;4.13;2.28;;;8.80;99.90;;;;;;5065928;28;20079;-46
2024/04/02 01:39:43;;;;;;;3.63;2.40;;;8.70;99.90;;;;;;5070492;28;20137;-45
2024/04/02 01:42:09;;;;;;;2.80;2.20;;;8.70;99.90;;;;;;5047920;28;20066;-45
2024/04/02 01:44:35;;;;;;;2.75;2.10;;;8.70;99.90;;;;;;5063441;28;20393;-43
2024/04/02 01:47:01;;;;;;;3.17;2.30;;;8.60;99.90;;;;;;5074360;28;20059;-44
2024/04/02 01:49:27;;;;;;;5.25;2.35;;;8.60;99.90;;;;;;5063698;28;20040;-47
2024/04/02 01:51:53;;;;;;;2.92;2.17;;;8.60;99.90;;;;;;5077214;28;20085;-50
2024/04/02 01:54:19;;;;;;;3.70;2.25;;;8.70;99.90;;;;;;5072843;28;20051;-44
2024/04/02 01:56:45;;;;;;;3.30;2.55;;;8.70;99.90;;;;;;5065614;28;20051;-48
2024/04/02 01:59:11;;;;;;;3.03;2.20;;;8.70;99.90;;;;;;5066799;28;20040;-46
2024/04/02 02:01:37;;;;;;;4.22;2.40;;;8.60;99.90;;;;;;5065662;28;20040;-46
2024/04/02 02:04:03;;;;;;;3.17;2.20;;;8.50;99.90;;;;;;5062278;28;20060;-47
2024/04/02 02:06:29;;;;;;;5.18;2.80;;;8.50;99.90;;;;;;5069040;28;20086;-44
2024/04/02 02:08:56;;;;;;;3.03;2.20;;;8.40;99.90;;;;;;5074643;28;20039;-48
2024/04/02 02:11:22;;;;;;;2.92;2.38;;;8.40;99.90;;;;;;5053297;28;20047;-43
2024/04/02 02:13:48;;;;;;;3.15;2.20;;;8.30;99.90;;;;;;5069705;28;20044;-44
2024/04/02 02:16:14;;;;;;;3.92;2.33;;;8.30;99.90;;;;;;5067111;28;20090;-45
2024/04/02 02:18:40;;;;;;;3.17;2.00;;;8.30;99.90;;;;;;5063362;28;20131;-48
2024/04/02 02:21:06;;;;;;;2.65;2.15;;;8.20;99.90;;;;;;5073961;28;20048;-44
2024/04/02 02:23:32;;;;;;;3.85;2.40;;;8.20;99.90;;;;;;5070079;28;20036;-41
2024/04/02 02:25:58;;;;;;;3.33;2.42;;;8.20;99.90;;;;;;5061131;28;20184;-44
2024/04/02 02:28:24;;;;;;;2.63;2.10;;;8.20;99.90;;;;;;5065869;28;20051;-41
2024/04/02 02:30:50;;;;;;;7.40;2.50;;;8.20;99.90;;;;;;5068280;28;20040;-45
2024/04/02 02:33:15;;;;;;;3.15;2.10;;;8.10;99.90;;;;;;5078670;28;20542;-45
2024/04/02 02:35:41;;;;;;;4.63;2.47;;;8.10;99.90;;;;;;5068528;28;20069;-44
2024/04/02 02:38:07;;;;;;;2.72;2.30;;;8.10;99.90;;;;;;5068678;28;20109;-45
2024/04/02 02:40:33;;;;;;;4.28;2.50;;;8.00;99.90;;;;;;5074064;28;20420;-44
2024/04/02 02:43:00;;;;;;;3.17;2.03;;;8.00;99.90;;;;;;5055041;28;20467;-47
2024/04/02 02:45:26;;;;;;;7.43;2.40;;;8.00;99.90;;;;;;5074048;28;20063;-45
2024/04/02 02:47:52;;;;;;;3.95;2.20;;;8.00;99.90;;;;;;5077970;28;20036;-45
2024/04/02 02:50:18;;;;;;;4.13;2.33;;;8.10;99.90;;;;;;5069233;28;20040;-45
2024/04/02 02:52:44;;;;;;;3.15;2.25;;;7.90;99.90;;;;;;5065494;28;20078;-47
2024/04/02 02:55:10;;;;;;;2.67;1.95;;;7.90;99.90;;;;;;5074926;28;20440;-43
2024/04/02 02:57:36;;;;;;;5.03;2.40;;;7.90;99.90;;;;;;5068586;28;20064;-44
2024/04/02 03:00:05;;;;;;;3.83;2.50;;;7.90;99.90;;;;;;5065810;28;20036;-44
2024/04/02 03:02:34;;;;;;;3.28;2.20;;;7.90;99.90;;;;;;5069292;28;20114;-41
2024/04/02 03:05:00;;;;;;;4.28;2.33;;;7.90;99.90;;;;;;5067891;28;20039;-44
2024/04/02 03:07:26;;;;;;;2.75;2.10;;;7.80;99.90;;;;;;5077827;28;20062;-45
2024/04/02 03:09:54;;;;;;;3.70;2.10;;;7.70;99.90;;;;;;5065688;28;20098;-41
2024/04/02 03:12:20;;;;;;;2.80;2.33;;;7.70;99.90;;;;;;5078709;28;20101;-45
2024/04/02 03:14:46;;;;;;;3.22;2.45;;;7.70;99.90;;;;;;5074674;28;20047;-46
2024/04/02 03:17:12;;;;;;;3.05;2.10;;;7.60;99.90;;;;;;5070286;28;20097;-47
2024/04/02 03:19:38;;;;;;;2.92;2.30;;;7.60;99.90;;;;;;5070480;28;20052;-49
2024/04/02 03:22:04;;;;;;;3.15;2.20;;;7.60;99.90;;;;;;5074940;28;20052;-46
2024/04/02 03:24:30;;;;;;;4.13;1.95;;;7.60;99.90;;;;;;5067468;28;20467;-48
2024/04/02 03:26:56;;;;;;;3.20;2.17;;;7.60;99.90;;;;;;5065158;28;20074;-49
2024/04/02 03:29:22;;;;;;;7.43;2.40;;;7.70;99.90;;;;;;5068066;28;20492;-43
2024/04/02 03:31:48;;;;;;;4.60;2.55;;;7.70;99.90;;;;;;5079250;28;20582;-44
2024/04/02 03:34:14;;;;;;;3.72;2.00;;;7.70;99.90;;;;;;5075740;28;20412;-46
2024/04/02 03:36:40;;;;;;;3.25;2.13;;;7.80;99.90;;;;;;5068090;28;20505;-45
2024/04/02 03:39:06;;;;;;;3.15;2.25;;;7.90;99.90;;;;;;5065797;28;20098;-47
2024/04/02 03:41:32;;;;;;;2.72;2.10;;;8.00;99.90;;;;;;5069999;28;20559;-46
2024/04/02 03:43:58;;;;;;;2.95;2.00;;;8.00;99.90;;;;;;5067821;28;20037;-42
2024/04/02 03:46:24;;;;;;;4.38;2.20;;;8.10;99.90;;;;;;5076820;28;20089;-48
2024/04/02 03:48:50;;;;;;;6.90;2.30;;;8.10;99.90;;;;;;5071713;28;20573;-46
2024/04/02 03:51:16;;;;;;;2.83;2.08;;;8.20;99.90;;;;;;5063181;28;20052;-46
2024/04/02 03:53:42;;;;;;;3.97;2.00;;;8.20;99.90;;;;;;5069883;28;20051;-45
2024/04/02 03:56:08;;;;;;;2.35;1.75;;;8.30;99.90;;;;;;5064872;28;20565;-45
2024/04/02 03:58:34;;;;;;;4.30;1.92;;;8.40;99.90;;;;;;5070752;28;20109;-47
2024/04/02 04:01:04;;;;;;;4.88;2.25;;;8.40;99.90;;;;;;5067708;28;20044;-45
2024/04/02 04:03:30;;;;;;;5.60;1.80;;;8.40;99.90;;;;;;5068053;28;20449;-46
2024/04/02 04:06:01;;;;;;;4.10;2.00;;;8.40;99.90;;;;;;5068672;28;20407;-46
2024/04/02 04:08:28;;;;;;;2.85;1.85;;;8.40;99.90;;;;;;5073159;28;20073;-48
2024/04/02 04:10:54;;;;;;;4.03;2.20;;;8.50;99.90;;;;;;5068393;28;20119;-45
2024/04/02 04:13:20;;;;;;;2.65;1.80;;;8.50;99.90;;;;;;5068114;28;20028;-43
2024/04/02 04:15:54;;;;;;;5.03;2.38;;;8.50;99.90;;;;;;5073715;28;20091;-48
2024/04/02 04:18:21;;;;;;;4.03;2.13;;;8.50;99.90;;;;;;5073751;28;20059;-48
2024/04/02 04:20:55;;;;;;;4.50;2.40;;;8.60;99.90;;;;;;5075025;28;20283;-46
2024/04/02 04:23:21;;;;;;;3.70;2.10;;;8.60;99.90;;;;;;5064286;28;20044;-45
2024/04/02 04:26:02;;;;;;;2.65;2.00;;;8.60;99.90;;;;;;5079774;28;20254;-43
2024/04/02 04:28:28;;;;;;;3.00;2.13;;;8.60;99.90;;;;;;5065709;28;20486;-47
2024/04/02 04:31:01;;;;;;;3.90;2.55;;;8.60;99.90;;;;;;5075328;28;20044;-45
2024/04/02 04:33:28;;;;;;;7.85;2.25;;;8.60;99.90;;;;;;5069392;28;20031;-47
2024/04/02 04:35:55;;;;;;;5.70;2.35;;;8.60;99.90;;;;;;5061990;28;20048;-47
2024/04/02 04:38:22;;;;;;;4.68;2.20;;;8.50;99.90;;;;;;5077286;28;20063;-45
2024/04/02 04:40:48;;;;;;;3.70;2.40;;;8.50;99.90;;;;;;5075609;28;20546;-46
2024/04/02 04:43:16;;;;;;;3.65;1.98;;;8.50;99.90;;;;;;5064769;28;20042;-46
2024/04/02 04:45:52;;;;;;;3.75;2.28;;;8.50;99.90;;;;;;5074671;28;20595;-46
2024/04/02 04:48:18;;;;;;;3.25;2.10;;;8.60;99.90;;;;;;5070623;28;20059;-49
2024/04/02 04:51:05;;;;;;;2.88;2.40;;;8.60;99.90;;;;;;5068935;28;20040;-47
2024/04/02 04:53:32;;;;;;;3.58;2.10;;;8.70;99.90;;;;;;5070306;28;20044;-44
2024/04/02 04:56:05;;;;;;;6.90;2.53;;;8.70;99.90;;;;;;5073591;28;20051;-44
2024/04/02 04:58:32;;;;;;;4.82;2.20;;;8.70;99.90;;;;;;5064681;28;20041;-45
2024/04/02 05:01:00;;;;;;;7.05;2.60;;;8.70;99.90;;;;;;5072811;28;20082;-48
2024/04/02 05:03:26;;;;;;;9.35;2.10;;;8.70;99.90;;;;;;5070829;28;20044;-42
2024/04/02 05:06:05;;;;;;;4.63;2.08;;;8.70;99.90;;;;;;5065321;28;20071;-44
2024/04/02 05:08:36;;;;;;;3.63;2.13;;;8.80;99.90;;;;;;5072561;28;20048;-48
2024/04/02 05:11:04;;;;;;;3.00;2.20;;;8.80;99.90;;;;;;5076605;28;20036;-45
2024/04/02 05:13:30;;;;;;;4.40;2.00;;;8.80;99.90;;;;;;5081050;28;20044;-43
2024/04/02 05:15:57;;;;;;;5.88;2.90;;;8.90;99.90;;;;;;5072024;28;20540;-46
2024/04/02 05:18:23;;;;;;;4.53;2.22;;;8.90;99.90;;;;;;5078312;28;20047;-48
2024/04/02 05:20:49;;;;;;;7.22;2.47;;;9.00;99.90;;;;;;5072920;28;20043;-47
2024/04/02 05:23:15;;;;;;;4.90;2.40;;;9.00;99.90;;;;;;5069727;28;20101;-47
2024/04/02 05:25:42;;;;;;;5.30;2.67;;;9.00;99.90;;;;;;5080194;28;20036;-51
2024/04/02 05:28:08;;;;;;;4.80;2.60;;;9.10;99.90;;;;;;5074543;28;20051;-42
2024/04/02 05:30:35;;;;;;;3.60;2.40;;;9.00;99.90;;;;;;5072241;28;20066;-47
2024/04/02 05:33:01;;;;;;;4.47;2.60;;;9.00;99.90;;;;;;5074227;28;20929;-41
2024/04/02 05:35:28;;;;;;;8.52;2.50;;;9.10;99.90;;;;;;5079587;28;20044;-49
2024/04/02 05:37:55;;;;;;;3.85;2.42;;;9.20;99.90;;;;;;5053714;28;20040;-46
2024/04/02 05:40:22;;;;;;;3.95;2.03;;;9.20;99.90;;;;;;5074137;28;20044;-45
2024/04/02 05:42:48;;;;;;;3.75;2.15;;;9.20;99.90;;;;;;5070778;28;20051;-45
2024/04/02 05:45:15;;;;;;;4.43;2.00;;;9.30;99.90;;;;;;5073341;28;20043;-46
2024/04/02 05:47:42;;;;;;;3.65;2.20;;;9.30;99.90;;;;;;5067801;28;20047;-42
2024/04/02 05:50:09;;;;;;;3.83;2.20;;;9.40;99.90;;;;;;5068363;28;20104;-49
2024/04/02 05:52:35;;;;;;;3.90;2.33;;;9.40;99.90;;;;;;5076563;28;20114;-46
2024/04/02 05:55:02;;;;;;;3.00;2.20;;;9.50;99.90;;;;;;5076195;28;20537;-46
2024/04/02 05:57:28;;;;;;;4.28;2.28;;;9.60;99.90;;;;;;5072850;28;20521;-41
2024/04/02 05:59:54;;;;;;;4.45;2.17;;;9.60;99.90;;;;;;5080058;28;20050;-48
2024/04/02 06:02:20;;;;;;;3.22;2.20;;;9.60;99.90;;;;;;5073602;28;20314;-44
2024/04/02 06:04:46;;;;;;;3.92;2.15;;;9.60;99.90;;;;;;5077167;28;20081;-48
2024/04/02 06:07:13;;;;;;;3.08;1.92;;;9.60;99.90;;;;;;5071274;28;20043;-41
2024/04/02 06:09:40;;;;;;;3.75;2.20;;;9.60;99.90;;;;;;5070382;28;20048;-47
2024/04/02 06:12:06;;;;;;;4.90;1.92;;;9.60;99.90;;;;;;5073173;28;20037;-42
2024/04/02 06:14:33;;;;;;;3.05;2.13;;;9.60;99.90;;;;;;5077926;28;20067;-44
2024/04/02 06:16:59;;;;;;;5.88;2.10;;;9.50;99.90;;;;;;5070107;28;20056;-46
2024/04/02 06:19:25;;;;;;;2.70;1.90;;;9.50;99.90;;;;;;5073030;28;20036;-45
2024/04/02 06:21:51;;;;;;;3.15;1.80;;;9.70;99.90;;;;;;5065266;28;20043;-44
2024/04/02 06:24:18;;;;;;;5.07;1.98;;;9.60;99.90;;;;;;5071688;28;20378;-42
2024/04/02 06:26:45;;;;;;;2.05;1.70;;;9.70;99.90;;;;;;5075574;28;20040;-43
2024/04/02 06:29:11;;;;;;;2.95;1.65;;;9.60;99.90;;;;;;5069532;28;20044;-46
2024/04/02 06:31:37;;;;;;;4.05;1.98;;;9.60;99.90;;;;;;5069215;28;20571;-44
2024/04/02 06:34:02;;;;;;;4.10;1.85;;;9.60;99.90;;;;;;5073790;28;20036;-45
2024/04/02 06:36:29;;;;;;;3.83;2.17;;;9.70;99.90;;;;;;5075381;28;20140;-43
2024/04/02 06:38:56;;;;;;;4.47;2.20;;;9.70;99.90;;;;;;5076119;28;20040;-46
2024/04/02 06:41:22;;;;;;;4.30;2.00;;;9.60;99.90;;;;;;5077118;28;20127;-46
2024/04/02 06:43:48;;;;;;;4.20;1.90;;;9.50;99.90;;;;;;5070021;28;20618;-41
2024/04/02 06:46:14;;;;;;;3.20;1.80;;;9.40;99.90;;;;;;5073995;28;20044;-43
2024/04/02 06:48:40;;;;;;;3.28;2.10;;;9.40;99.90;;;;;;5073587;28;20078;-47
2024/04/02 06:51:10;;;;;;;5.32;2.28;;;9.40;99.90;;;;;;5072192;28;20036;-41
2024/04/02 06:53:37;;;;;;;5.72;2.20;;;9.40;99.90;;;;;;5071462;28;20056;-44
2024/04/02 06:56:04;;;;;;;4.32;2.00;;;9.40;99.90;;;;;;5068691;28;20527;-45
2024/04/02 06:58:30;;;;;;;3.22;2.00;;;9.40;99.90;;;;;;5070455;28;20044;-47
2024/04/02 07:00:56;;;;;;;3.92;2.15;;;9.50;99.90;;;;;;5077546;28;20127;-45
2024/04/02 07:03:23;;;;;;;4.35;1.90;;;9.60;99.90;;;;;;5069048;28;20048;-43
2024/04/02 07:05:51;;;;;;;3.58;1.90;;;9.50;99.90;;;;;;5073670;28;20046;-42
2024/04/02 07:08:21;;;;;;;2.10;1.90;;;9.60;99.90;;;;;;5070267;28;20485;-45
2024/04/02 07:10:58;;;;;;;3.13;1.88;;;9.60;99.90;;;;;;5074912;28;20053;-45
2024/04/02 07:13:27;;;;;;;5.05;1.95;;;9.50;99.90;;;;;;5077003;28;20048;-44
2024/04/02 07:15:54;;;;;;;3.58;1.90;;;9.50;99.90;;;;;;5068101;28;20039;-44
2024/04/02 07:18:20;;;;;;;3.03;1.73;;;9.40;99.90;;;;;;5074201;28;20043;-45
2024/04/02 07:21:00;;;;;;;3.42;1.83;;;9.40;99.90;;;;;;5076791;28;21114;-42
2024/04/02 07:23:26;;;;;;;4.50;1.70;;;9.40;99.90;;;;;;5065434;28;20406;-45
2024/04/02 07:25:52;;;;;;;3.63;1.73;;;9.50;99.90;;;;;;5073330;28;20047;-44
2024/04/02 07:28:20;;;;;;;3.42;1.70;;;9.70;99.90;;;;;;5078819;28;20098;-48
2024/04/02 07:30:45;;;;;;;3.10;2.05;;;9.80;99.90;;;;;;5073069;28;20032;-45
2024/04/02 07:33:12;;;;;;;2.83;1.92;;;9.80;99.90;;;;;;5076466;28;20448;-44
2024/04/02 07:35:38;;;;;;;2.40;1.67;;;9.70;99.90;;;;;;5080078;28;20048;-45
2024/04/02 07:38:04;;;;;;;4.28;2.28;;;9.70;99.90;;;;;;5074410;28;20315;-43
2024/04/02 07:40:30;;;;;;;4.15;1.77;;;9.70;99.90;;;;;;5078357;28;20113;-41
2024/04/02 07:42:58;;;;;;;2.55;1.77;;;9.80;99.90;;;;;;5070217;28;20138;-44
2024/04/02 07:45:24;;;;;;;3.47;1.83;;;9.90;99.90;;;;;;5069478;28;20070;-45
2024/04/02 07:47:50;;;;;;;7.55;1.83;;;9.90;99.90;;;;;;5071101;28;20048;-46
2024/04/02 07:50:17;;;;;;;3.08;1.92;;;9.90;99.90;;;;;;5072832;28;20047;-46
2024/04/02 07:52:43;;;;;;;2.50;1.80;;;10.10;99.90;;;;;;5071750;28;20048;-42
2024/04/02 07:55:09;;;;;;;3.47;1.80;;;10.10;99.90;;;;;;5070067;28;20213;-41
2024/04/02 07:57:35;;;;;;;3.08;2.03;;;10.20;99.90;;;;;;5071905;28;20156;-47
2024/04/02 08:00:03;;;;;;;2.92;1.90;;;10.00;99.90;;;;;;5072980;28;20118;-44
2024/04/02 08:02:31;;;;;;;3.33;2.00;;;10.00;99.90;;;;;;5072241;28;20123;-42
2024/04/02 08:04:58;;;;;;;3.33;1.85;;;9.90;99.90;;;;;;5078142;28;20093;-46
2024/04/02 08:07:24;;;;;;;3.15;1.60;;;9.90;99.90;;;;;;5074556;28;20032;-44
2024/04/02 08:09:50;;;;;;;2.42;1.85;;;9.90;99.90;;;;;;5066536;28;20048;-42
2024/04/02 08:12:16;;;;;;;3.03;1.88;;;10.10;99.90;;;;;;5066790;28;20131;-42
2024/04/02 08:14:42;;;;;;;2.15;1.70;;;10.30;99.90;;;;;;5089744;28;20048;-46
2024/04/02 08:17:09;;;;;;;3.83;1.55;;;10.50;99.90;;;;;;5079267;28;20067;-48
2024/04/02 08:19:35;;;;;;;3.78;2.03;;;10.70;99.90;;;;;;5072423;28;20040;-43
2024/04/02 08:22:01;;;;;;;3.13;1.85;;;10.70;99.90;;;;;;5073773;28;20066;-43
2024/04/02 08:24:27;;;;;;;2.55;1.70;;;10.80;99.90;;;;;;5068275;28;21171;-48
2024/04/02 08:26:53;;;;;;;3.05;2.22;;;11.10;99.90;;;;;;5079031;28;20412;-50
2024/04/02 08:29:19;;;;;;;2.28;1.73;;;11.20;99.90;;;;;;5070635;28;20059;-42
2024/04/02 08:31:45;;;;;;;3.75;2.45;;;11.30;99.90;;;;;;5053154;28;20927;-45
2024/04/02 08:34:11;;;;;;;2.67;1.80;;;11.20;99.90;;;;;;5070521;28;20540;-40
2024/04/02 08:36:37;;;;;;;4.07;2.15;;;11.00;99.90;;;;;;5063898;28;20048;-44
2024/04/02 08:39:04;;;;;;;3.05;2.20;;;10.90;99.90;;;;;;5066149;28;20036;-42
2024/04/02 08:41:30;;;;;;;2.50;2.13;;;10.60;99.90;;;;;;5068436;28;20082;-43
2024/04/02 08:43:57;;;;;;;2.45;1.90;;;10.20;99.90;;;;;;5069271;28;20165;-40
2024/04/02 08:46:26;;;;;;;3.10;2.00;;;10.10;99.90;;;;;;5069790;28;20036;-48
2024/04/02 08:48:58;;;;;;;4.85;2.58;;;9.80;99.90;;;;;;5073301;28;20047;-47
2024/04/02 08:51:27;;;;;;;4.35;1.98;;;9.70;99.90;;;;;;5065568;28;20048;-44
2024/04/02 08:53:54;;;;;;;2.70;2.17;;;9.70;99.90;;;;;;5070930;28;20040;-41
2024/04/02 08:56:20;;;;;;;2.40;1.80;;;9.60;99.90;;;;;;5071156;28;20048;-50
2024/04/02 08:58:46;;;;;;;2.33;1.83;;;9.40;99.90;;;;;;5062943;28;20047;-46
2024/04/02 09:01:14;;;;;;;2.78;1.80;;;9.20;99.90;;;;;;5070537;28;20048;-46
2024/04/02 09:03:44;;;;;;;4.20;1.60;;;9.20;99.90;;;;;;5066989;28;20461;-48
2024/04/02 09:06:10;;;;;;;2.20;1.65;;;9.30;99.90;;;;;;5064931;28;20032;-49
2024/04/02 09:08:47;;;;;;;2.28;1.67;;;9.50;99.90;;;;;;5048281;28;20132;-48
2024/04/02 09:11:13;;;;;;;3.60;1.50;;;9.70;99.90;;;;;;5072267;28;20028;-47
2024/04/02 09:13:40;;;;;;;1.80;1.50;;;9.80;99.90;;;;;;5068764;28;20039;-45
2024/04/02 09:16:12;;;;;;;3.05;1.77;;;9.90;99.90;;;;;;5067510;28;20497;-46
2024/04/02 09:18:42;;;;;;;3.65;1.75;;;9.60;99.90;;;;;;5067509;28;20111;-47
2024/04/02 09:21:13;;;;;;;2.38;1.67;;;9.50;99.90;;;;;;5065630;28;20256;-46
2024/04/02 09:23:39;;;;;;;3.38;1.80;;;9.40;99.90;;;;;;5067128;28;20052;-48
2024/04/02 09:26:08;;;;;;;5.00;2.13;;;9.30;99.90;;;;;;5071198;28;20048;-48
2024/04/02 09:28:41;;;;;;;4.60;2.53;;;9.30;99.90;;;;;;5065417;28;20090;-47
2024/04/02 09:31:07;;;;;;;3.33;1.80;;;9.40;99.90;;;;;;5067208;28;20533;-47
2024/04/02 09:33:36;;;;;;;3.28;1.95;;;9.60;99.90;;;;;;5065231;28;20063;-45
2024/04/02 09:36:15;;;;;;;4.82;2.03;;;9.70;99.90;;;;;;5063406;28;20118;-44
2024/04/02 09:38:42;;;;;;;3.25;1.80;;;9.90;99.90;;;;;;5065444;28;20044;-46
2024/04/02 09:41:09;;;;;;;4.82;1.90;;;10.30;99.90;;;;;;5067598;28;20051;-44
2024/04/02 09:43:36;;;;;;;2.17;1.70;;;10.70;99.90;;;;;;5059741;28;20052;-45
2024/04/02 09:46:04;;;;;;;5.13;2.10;;;10.90;99.90;;;;;;5070174;28;20043;-43
2024/04/02 09:48:33;;;;;;;5.50;2.28;;;10.90;99.90;;;;;;5068918;28;20414;-45
2024/04/02 09:51:00;;;;;;;8.20;2.53;;;11.00;99.90;;;;;;5066750;28;20047;-46
2024/04/02 09:53:28;;;;;;;4.35;2.70;;;11.30;99.90;;;;;;5066770;28;20047;-49
2024/04/02 09:55:57;;;;;;;7.85;2.70;;;11.40;99.90;;;;;;5067425;28;20044;-40
2024/04/02 09:58:23;;;;;;;7.05;2.75;;;11.60;99.90;;;;;;5065346;28;20416;-43
2024/04/02 10:00:57;;;;;;;6.90;3.28;;;11.40;99.90;;;;;;5067043;28;20054;-43
2024/04/02 10:03:26;;;;;;;6.68;3.03;;;11.20;99.90;;;;;;5066965;28;20107;-43
2024/04/02 10:05:52;;;;;;;5.90;2.75;;;11.30;99.90;;;;;;5060521;28;20040;-42
2024/04/02 10:08:25;;;;;;;6.13;3.35;;;11.50;99.90;;;;;;5063504;28;20110;-45
2024/04/02 10:10:54;;;;;;;7.45;3.30;;;11.60;99.90;;;;;;5066193;28;20036;-48
2024/04/02 10:13:21;;;;;;;9.05;3.80;;;11.60;99.90;;;;;;5067452;28;20109;-45
2024/04/02 10:15:53;;;;;;;7.85;3.20;;;11.70;99.90;;;;;;5066457;28;20052;-48
2024/04/02 10:18:23;;;;;;;6.93;3.08;;;11.40;99.90;;;;;;5070004;28;20054;-48
2024/04/02 10:20:56;;;;;;;7.40;3.10;;;11.30;99.90;;;;;;5069949;28;20043;-42
2024/04/02 10:23:24;;;;;;;5.30;3.60;;;11.20;99.90;;;;;;5067333;28;20052;-47
2024/04/02 10:25:50;;;;;;;7.68;3.05;;;11.20;99.90;;;;;;5061197;28;20040;-49
2024/04/02 10:28:25;;;;;;;9.35;3.00;;;11.40;99.90;;;;;;5066789;28;20050;-49
2024/04/02 10:30:51;;;;;;;6.30;3.10;;;11.60;99.90;;;;;;5067373;28;20097;-47
2024/04/02 10:33:21;;;;;;;9.57;3.20;;;11.70;99.90;;;;;;5072013;28;20518;-42
2024/04/02 10:35:48;;;;;;;5.95;3.00;;;11.80;99.90;;;;;;5072195;28;20047;-43
2024/04/02 10:38:14;;;;;;;6.05;3.22;;;12.10;99.90;;;;;;5062704;28;20055;-45
2024/04/02 10:40:40;;;;;;;8.55;3.55;;;12.30;99.90;;;;;;5085057;28;20040;-45
2024/04/02 10:43:06;;;;;;;6.15;3.15;;;12.30;99.90;;;;;;5067072;28;20040;-48
2024/04/02 10:45:33;;;;;;;7.38;3.08;;;12.00;99.90;;;;;;5072647;28;20040;-50
2024/04/02 10:48:01;;;;;;;8.45;4.00;;;12.00;99.90;;;;;;5075475;28;20036;-45
2024/04/02 10:50:27;;;;;;;6.40;3.20;;;11.90;99.90;;;;;;5063821;28;20123;-45
2024/04/02 10:52:53;;;;;;;7.43;3.22;;;12.00;99.90;;;;;;5065920;28;20131;-50
2024/04/02 10:55:19;;;;;;;10.45;3.30;;;12.10;99.90;;;;;;5072395;28;20428;-43
2024/04/02 10:57:45;;;;;;;8.88;3.40;;;12.20;99.90;;;;;;5064869;28;20055;-47
2024/04/02 11:00:15;;;;;;;6.57;3.13;;;12.40;99.90;;;;;;5064587;28;20060;-46
2024/04/02 11:02:43;;;;;;;5.00;3.00;;;12.40;99.90;;;;;;5071219;28;20047;-46
2024/04/02 11:05:14;;;;;;;5.03;3.30;;;12.50;99.90;;;;;;5076384;28;20051;-46
2024/04/02 11:07:42;;;;;;;8.77;3.83;;;12.60;99.90;;;;;;5069365;28;20139;-46
2024/04/02 11:10:09;;;;;;;7.05;4.07;;;12.30;99.90;;;;;;5070559;28;20040;-43
2024/04/02 11:12:35;;;;;;;5.68;3.35;;;12.30;99.90;;;;;;5055665;28;20069;-44
2024/04/02 11:15:02;;;;;;;5.18;3.67;;;12.40;99.90;;;;;;5071466;28;20047;-40
2024/04/02 11:17:28;;;;;;;5.88;3.50;;;12.60;99.90;;;;;;5067030;28;20044;-43
2024/04/02 11:19:56;;;;;;;8.15;3.65;;;12.60;99.90;;;;;;5071265;28;20044;-42
2024/04/02 11:25:16;;;;;;;6.07;3.22;;;13.20;99.90;;;;;;5066948;28;20058;-43
2024/04/02 11:27:42;;;;;;;5.40;3.30;;;13.40;99.90;;;;;;5072839;28;20044;-48
2024/04/02 11:30:09;;;;;;;5.25;3.35;;;13.70;99.90;;;;;;5068465;28;20036;-43
2024/04/02 11:32:36;;;;;;;7.25;3.72;;;14.30;99.90;;;;;;5073369;28;20043;-44
2024/04/02 11:35:09;;;;;;;5.85;3.47;;;14.30;99.90;;;;;;5071395;28;20071;-42
2024/04/02 11:37:36;;;;;;;6.18;3.60;;;14.20;99.90;;;;;;5071058;28;20520;-46
2024/04/02 11:40:03;;;;;;;5.82;3.45;;;14.20;99.90;;;;;;5071340;28;20048;-45
2024/04/02 11:42:30;;;;;;;6.70;3.60;;;14.40;99.90;;;;;;5080462;28;20048;-46
2024/04/02 11:45:00;;;;;;;7.15;3.70;;;14.70;99.90;;;;;;5075858;28;20122;-47
2024/04/02 11:47:27;;;;;;;7.13;3.40;;;14.80;99.90;;;;;;5079356;28;20044;-45
2024/04/02 11:49:53;;;;;;;6.43;3.65;;;14.80;99.90;;;;;;5076736;28;20108;-46
2024/04/02 11:52:19;;;;;;;5.30;3.70;;;14.70;99.90;;;;;;5077957;28;20126;-48
2024/04/02 11:54:45;;;;;;;6.07;4.03;;;14.20;99.90;;;;;;5078634;28;20125;-43
2024/04/02 12:00:11;;;;;;;5.57;3.50;;;14.00;99.90;;;;;;5067382;28;20504;-48
2024/04/02 12:02:42;;;;;;;9.90;4.07;;;14.20;99.90;;;;;;5076538;28;20067;-49
2024/04/02 12:05:09;;;;;;;7.13;3.55;;;14.70;99.90;;;;;;5069125;28;20040;-47
2024/04/02 12:07:36;;;;;;;9.00;4.25;;;14.70;99.90;;;;;;5077574;28;20051;-44
2024/04/02 12:10:04;;;;;;;6.25;3.97;;;14.90;99.90;;;;;;5064774;28;20081;-46
2024/04/02 12:12:32;;;;;;;7.43;3.78;;;14.90;99.90;;;;;;5069931;28;20441;-46
2024/04/02 12:14:59;;;;;;;5.88;3.60;;;15.20;99.90;;;;;;5066698;28;20173;-48
2024/04/02 12:17:25;;;;;;;6.45;3.85;;;15.90;99.90;;;;;;5069987;28;20044;-50
2024/04/02 12:19:52;;;;;;;8.50;4.30;;;16.60;99.90;;;;;;5068919;28;20092;-49
2024/04/02 12:22:19;;;;;;;5.50;4.18;;;16.10;99.90;;;;;;5066355;28;20492;-45
2024/04/02 12:24:45;;;;;;;6.95;4.10;;;16.50;99.90;;;;;;5069640;28;20397;-44
2024/04/02 12:27:12;;;;;;;4.22;3.55;;;16.40;99.90;;;;;;5066906;28;20420;-45
2024/04/02 12:29:39;;;;;;;4.72;3.80;;;16.50;99.90;;;;;;5069311;28;20040;-46
2024/04/02 12:32:07;;;;;;;5.60;4.05;;;17.10;99.90;;;;;;5067169;28;20044;-44
2024/04/02 12:34:39;;;;;;;6.25;3.78;;;17.30;99.90;;;;;;5067182;28;20475;-48
2024/04/02 12:37:05;;;;;;;5.35;4.00;;;16.30;99.90;;;;;;5064005;28;20032;-43
2024/04/02 12:39:35;;;;;;;7.15;4.03;;;16.20;99.90;;;;;;5067651;28;20500;-47
2024/04/02 12:42:03;;;;;;;8.27;4.00;;;16.50;99.90;;;;;;5066676;28;20139;-50
2024/04/02 12:44:30;;;;;;;6.60;4.38;;;15.90;99.90;;;;;;5069376;28;20440;-48
2024/04/02 12:46:58;;;;;;;5.00;4.07;;;15.20;99.90;;;;;;5067718;28;20386;-45
2024/04/02 12:49:24;;;;;;;5.28;3.85;;;14.50;99.90;;;;;;5067922;28;20040;-42
2024/04/02 12:51:51;;;;;;;4.50;3.88;;;13.80;99.90;;;;;;5068819;28;20085;-48
2024/04/02 12:54:17;;;;;;;3.92;3.40;;;13.90;99.90;;;;;;5064535;28;20122;-48
2024/04/02 12:56:43;;;;;;;4.57;3.15;;;13.80;99.90;;;;;;5068102;28;20051;-42
2024/04/02 12:59:09;;;;;;;5.90;3.25;;;14.40;99.90;;;;;;5063500;28;20060;-41